sensor_id;sensor_type;location;lat;lon;timestamp;temperature;humidity
43949;DHT22;29429;51.074;13.764;2023-04-24T00:02:24;11.50;99.90
43949;DHT22;29429;51.074;13.764;2023-04-24T00:04:52;11.30;99.90
43949;DHT22;29429;51.074;13.764;2023-04-24T00:07:19;11.40;99.90
43949;DHT22;29429;51.074;13.764;2023-04-24T00:09:46;11.40;99.90
43949;DHT22;29429;51.074;13.764;2023-04-24T00:12:13;11.50;99.90
43949;DHT22;29429;51.074;13.764;2023-04-24T00:14:40;11.40;99.90
43949;DHT22;29429;51.074;13.764;2023-04-24T00:17:07;11.40;99.90
43949;DHT22;29429;51.074;13.764;2023-04-24T00:19:34;11.40;99.90
43949;DHT22;29429;51.074;13.764;2023-04-24T00:22:02;11.40;99.90
43949;DHT22;29429;51.074;13.764;2023-04-24T00:24:30;11.40;99.90
43949;DHT22;29429;51.074;13.764;2023-04-24T00:26:57;11.40;99.90
43949;DHT22;29429;51.074;13.764;2023-04-24T00:29:24;11.50;99.90
43949;DHT22;29429;51.074;13.764;2023-04-24T00:31:51;11.50;99.90
43949;DHT22;29429;51.074;13.764;2023-04-24T00:34:18;11.60;99.90
43949;DHT22;29429;51.074;13.764;2023-04-24T00:36:45;11.60;99.90
43949;DHT22;29429;51.074;13.764;2023-04-24T00:39:12;11.60;99.90
43949;DHT22;29429;51.074;13.764;2023-04-24T00:41:39;11.70;99.90
43949;DHT22;29429;51.074;13.764;2023-04-24T00:44:06;11.60;99.90
43949;DHT22;29429;51.074;13.764;2023-04-24T00:46:34;11.60;99.90
43949;DHT22;29429;51.074;13.764;2023-04-24T00:49:02;11.60;99.90
43949;DHT22;29429;51.074;13.764;2023-04-24T00:51:29;11.60;99.90
43949;DHT22;29429;51.074;13.764;2023-04-24T00:53:57;11.60;99.90
43949;DHT22;29429;51.074;13.764;2023-04-24T00:56:24;11.60;99.90
43949;DHT22;29429;51.074;13.764;2023-04-24T00:58:51;11.60;99.90
43949;DHT22;29429;51.074;13.764;2023-04-24T01:01:22;11.70;99.90
43949;DHT22;29429;51.074;13.764;2023-04-24T01:03:51;11.70;99.90
43949;DHT22;29429;51.074;13.764;2023-04-24T01:06:20;11.70;99.90
43949;DHT22;29429;51.074;13.764;2023-04-24T01:08:48;11.90;99.90
43949;DHT22;29429;51.074;13.764;2023-04-24T01:11:16;11.80;99.90
43949;DHT22;29429;51.074;13.764;2023-04-24T01:13:44;11.80;99.90
43949;DHT22;29429;51.074;13.764;2023-04-24T01:16:12;11.80;99.90
43949;DHT22;29429;51.074;13.764;2023-04-24T01:18:41;11.80;99.90
43949;DHT22;29429;51.074;13.764;2023-04-24T01:21:11;11.90;99.90
43949;DHT22;29429;51.074;13.764;2023-04-24T01:23:41;11.80;99.90
43949;DHT22;29429;51.074;13.764;2023-04-24T01:26:10;11.80;99.90
43949;DHT22;29429;51.074;13.764;2023-04-24T01:28:38;11.70;99.90
43949;DHT22;29429;51.074;13.764;2023-04-24T01:31:06;11.70;99.90
43949;DHT22;29429;51.074;13.764;2023-04-24T01:33:33;11.70;99.90
43949;DHT22;29429;51.074;13.764;2023-04-24T01:36:00;11.70;99.90
43949;DHT22;29429;51.074;13.764;2023-04-24T01:38:28;11.70;99.90
43949;DHT22;29429;51.074;13.764;2023-04-24T01:40:55;11.70;99.90
43949;DHT22;29429;51.074;13.764;2023-04-24T01:43:24;11.70;99.90
43949;DHT22;29429;51.074;13.764;2023-04-24T01:45:51;11.70;99.90
43949;DHT22;29429;51.074;13.764;2023-04-24T01:48:18;11.70;99.90
43949;DHT22;29429;51.074;13.764;2023-04-24T01:50:45;11.70;99.90
43949;DHT22;29429;51.074;13.764;2023-04-24T01:53:12;11.80;99.90
43949;DHT22;29429;51.074;13.764;2023-04-24T01:55:40;11.80;99.90
43949;DHT22;29429;51.074;13.764;2023-04-24T01:58:07;11.90;99.90
43949;DHT22;29429;51.074;13.764;2023-04-24T02:00:35;11.90;99.90
43949;DHT22;29429;51.074;13.764;2023-04-24T02:03:01;11.90;99.90
43949;DHT22;29429;51.074;13.764;2023-04-24T02:05:29;11.90;99.90
43949;DHT22;29429;51.074;13.764;2023-04-24T02:07:56;11.90;99.90
43949;DHT22;29429;51.074;13.764;2023-04-24T02:10:23;12.00;99.90
43949;DHT22;29429;51.074;13.764;2023-04-24T02:12:51;11.90;99.90
43949;DHT22;29429;51.074;13.764;2023-04-24T02:15:22;11.90;99.90
43949;DHT22;29429;51.074;13.764;2023-04-24T02:17:49;11.90;99.90
43949;DHT22;29429;51.074;13.764;2023-04-24T02:20:16;11.90;99.90
43949;DHT22;29429;51.074;13.764;2023-04-24T02:22:44;11.90;99.90
43949;DHT22;29429;51.074;13.764;2023-04-24T02:25:11;11.90;99.90
43949;DHT22;29429;51.074;13.764;2023-04-24T02:27:38;11.80;99.90
43949;DHT22;29429;51.074;13.764;2023-04-24T02:30:05;11.80;99.90
43949;DHT22;29429;51.074;13.764;2023-04-24T02:32:34;11.80;99.90
43949;DHT22;29429;51.074;13.764;2023-04-24T02:35:01;11.80;99.90
43949;DHT22;29429;51.074;13.764;2023-04-24T02:37:28;11.80;99.90
43949;DHT22;29429;51.074;13.764;2023-04-24T02:39:55;11.80;99.90
43949;DHT22;29429;51.074;13.764;2023-04-24T02:42:21;11.80;99.90
43949;DHT22;29429;51.074;13.764;2023-04-24T02:44:48;11.80;99.90
43949;DHT22;29429;51.074;13.764;2023-04-24T02:47:17;11.80;99.90
43949;DHT22;29429;51.074;13.764;2023-04-24T02:49:45;11.80;99.90
43949;DHT22;29429;51.074;13.764;2023-04-24T02:52:12;11.80;99.90
43949;DHT22;29429;51.074;13.764;2023-04-24T02:54:39;11.80;99.90
43949;DHT22;29429;51.074;13.764;2023-04-24T02:57:06;11.90;99.90
43949;DHT22;29429;51.074;13.764;2023-04-24T02:59:33;11.90;99.90
43949;DHT22;29429;51.074;13.764;2023-04-24T03:02:01;11.90;99.90
43949;DHT22;29429;51.074;13.764;2023-04-24T03:04:27;11.80;99.90
43949;DHT22;29429;51.074;13.764;2023-04-24T03:06:55;11.80;99.90
43949;DHT22;29429;51.074;13.764;2023-04-24T03:09:22;11.80;99.90
43949;DHT22;29429;51.074;13.764;2023-04-24T03:11:49;11.80;99.90
43949;DHT22;29429;51.074;13.764;2023-04-24T03:14:16;11.70;99.90
43949;DHT22;29429;51.074;13.764;2023-04-24T03:16:43;11.70;99.90
43949;DHT22;29429;51.074;13.764;2023-04-24T03:19:10;11.70;99.90
43949;DHT22;29429;51.074;13.764;2023-04-24T03:21:46;11.70;99.90
43949;DHT22;29429;51.074;13.764;2023-04-24T03:24:13;11.80;99.90
43949;DHT22;29429;51.074;13.764;2023-04-24T03:26:40;11.70;99.90
43949;DHT22;29429;51.074;13.764;2023-04-24T03:29:32;11.70;99.90
43949;DHT22;29429;51.074;13.764;2023-04-24T03:31:59;11.60;99.90
43949;DHT22;29429;51.074;13.764;2023-04-24T03:34:26;11.70;99.90
43949;DHT22;29429;51.074;13.764;2023-04-24T03:36:53;11.70;99.90
43949;DHT22;29429;51.074;13.764;2023-04-24T03:39:20;11.70;99.90
43949;DHT22;29429;51.074;13.764;2023-04-24T03:41:53;11.70;99.90
43949;DHT22;29429;51.074;13.764;2023-04-24T03:44:25;11.70;99.90
43949;DHT22;29429;51.074;13.764;2023-04-24T03:46:52;11.70;99.90
43949;DHT22;29429;51.074;13.764;2023-04-24T03:49:21;11.70;99.90
43949;DHT22;29429;51.074;13.764;2023-04-24T03:51:48;11.70;99.90
43949;DHT22;29429;51.074;13.764;2023-04-24T03:54:24;11.60;99.90
43949;DHT22;29429;51.074;13.764;2023-04-24T03:56:53;11.70;99.90
43949;DHT22;29429;51.074;13.764;2023-04-24T03:59:20;11.60;99.90
43949;DHT22;29429;51.074;13.764;2023-04-24T04:01:58;11.60;99.90
43949;DHT22;29429;51.074;13.764;2023-04-24T04:04:25;11.60;99.90
43949;DHT22;29429;51.074;13.764;2023-04-24T04:06:52;11.60;99.90
43949;DHT22;29429;51.074;13.764;2023-04-24T04:09:20;11.60;99.90
43949;DHT22;29429;51.074;13.764;2023-04-24T04:11:47;11.70;99.90
43949;DHT22;29429;51.074;13.764;2023-04-24T04:14:14;11.70;99.90
43949;DHT22;29429;51.074;13.764;2023-04-24T04:16:45;11.70;99.90
43949;DHT22;29429;51.074;13.764;2023-04-24T04:19:12;11.80;99.90
43949;DHT22;29429;51.074;13.764;2023-04-24T04:21:40;11.80;99.90
43949;DHT22;29429;51.074;13.764;2023-04-24T04:24:19;11.90;99.90
43949;DHT22;29429;51.074;13.764;2023-04-24T04:26:51;11.90;99.90
43949;DHT22;29429;51.074;13.764;2023-04-24T04:29:25;12.00;99.90
43949;DHT22;29429;51.074;13.764;2023-04-24T04:31:52;12.00;99.90
43949;DHT22;29429;51.074;13.764;2023-04-24T04:34:20;12.00;99.90
43949;DHT22;29429;51.074;13.764;2023-04-24T04:36:48;12.00;99.90
43949;DHT22;29429;51.074;13.764;2023-04-24T04:39:29;12.10;99.90
43949;DHT22;29429;51.074;13.764;2023-04-24T04:42:03;12.10;99.90
43949;DHT22;29429;51.074;13.764;2023-04-24T04:44:36;12.10;99.90
43949;DHT22;29429;51.074;13.764;2023-04-24T04:47:06;12.10;99.90
43949;DHT22;29429;51.074;13.764;2023-04-24T04:49:35;12.10;99.90
43949;DHT22;29429;51.074;13.764;2023-04-24T04:52:06;12.10;99.90
43949;DHT22;29429;51.074;13.764;2023-04-24T04:54:33;12.20;99.90
43949;DHT22;29429;51.074;13.764;2023-04-24T04:57:01;12.30;99.90
43949;DHT22;29429;51.074;13.764;2023-04-24T04:59:30;12.30;99.90
43949;DHT22;29429;51.074;13.764;2023-04-24T05:02:03;12.40;99.90
43949;DHT22;29429;51.074;13.764;2023-04-24T05:04:30;12.50;99.90
43949;DHT22;29429;51.074;13.764;2023-04-24T05:06:58;12.60;99.90
43949;DHT22;29429;51.074;13.764;2023-04-24T05:09:27;12.70;99.90
43949;DHT22;29429;51.074;13.764;2023-04-24T05:12:01;12.80;99.90
43949;DHT22;29429;51.074;13.764;2023-04-24T05:14:32;12.90;99.90
43949;DHT22;29429;51.074;13.764;2023-04-24T05:16:59;13.00;99.90
43949;DHT22;29429;51.074;13.764;2023-04-24T05:19:28;13.10;99.90
43949;DHT22;29429;51.074;13.764;2023-04-24T05:21:55;13.20;99.90
43949;DHT22;29429;51.074;13.764;2023-04-24T05:24:23;13.30;99.90
43949;DHT22;29429;51.074;13.764;2023-04-24T05:27:08;13.40;99.90
43949;DHT22;29429;51.074;13.764;2023-04-24T05:29:38;13.50;99.90
43949;DHT22;29429;51.074;13.764;2023-04-24T05:32:08;13.60;99.90
43949;DHT22;29429;51.074;13.764;2023-04-24T05:34:35;13.70;99.90
43949;DHT22;29429;51.074;13.764;2023-04-24T05:37:02;13.70;99.90
43949;DHT22;29429;51.074;13.764;2023-04-24T05:39:30;13.80;99.90
43949;DHT22;29429;51.074;13.764;2023-04-24T05:41:58;13.90;99.90
43949;DHT22;29429;51.074;13.764;2023-04-24T05:44:26;14.00;99.90
43949;DHT22;29429;51.074;13.764;2023-04-24T05:46:53;14.00;99.90
43949;DHT22;29429;51.074;13.764;2023-04-24T05:49:22;14.10;99.90
43949;DHT22;29429;51.074;13.764;2023-04-24T05:51:50;14.30;99.90
43949;DHT22;29429;51.074;13.764;2023-04-24T05:59:19;14.40;99.90
43949;DHT22;29429;51.074;13.764;2023-04-24T06:01:47;14.40;99.90
43949;DHT22;29429;51.074;13.764;2023-04-24T06:04:18;14.80;99.90
43949;DHT22;29429;51.074;13.764;2023-04-24T06:06:45;14.90;99.90
43949;DHT22;29429;51.074;13.764;2023-04-24T06:09:12;14.90;99.90
43949;DHT22;29429;51.074;13.764;2023-04-24T16:03:52;15.00;99.90
43949;DHT22;29429;51.074;13.764;2023-04-24T17:35:14;16.80;67.20
43949;DHT22;29429;51.074;13.764;2023-04-24T17:37:41;14.90;87.90
43949;DHT22;29429;51.074;13.764;2023-04-24T17:40:09;14.70;88.20
43949;DHT22;29429;51.074;13.764;2023-04-24T17:42:37;14.60;89.30
43949;DHT22;29429;51.074;13.764;2023-04-24T17:45:07;14.50;90.40
43949;DHT22;29429;51.074;13.764;2023-04-24T17:47:35;14.50;90.30
43949;DHT22;29429;51.074;13.764;2023-04-24T17:50:02;14.50;90.60
43949;DHT22;29429;51.074;13.764;2023-04-24T17:52:29;14.40;90.90
43949;DHT22;29429;51.074;13.764;2023-04-24T17:54:56;14.40;91.40
43949;DHT22;29429;51.074;13.764;2023-04-24T17:57:23;14.30;91.30
43949;DHT22;29429;51.074;13.764;2023-04-24T17:59:50;14.20;91.30
